Time;durP1;ratioP1;P1;durP2;ratioP2;P2;SDS_P1;SDS_P2;PMS_P1;PMS_P2;Temp;Humidity;BMP_temperature;BMP_pressure;BME280_temperature;BME280_humidity;BME280_pressure;Samples;Min_cycle;Max_cycle;Signal;HPM_P1;HPM_P2
2023/05/16 00:00:54;;;;;;;12.63;9.85;;;;;;;;;;4929153;28;20037;-66
2023/05/16 00:03:20;;;;;;;13.40;9.50;;;;;;;;;;4911052;28;20117;-66
2023/05/16 00:05:45;;;;;;;15.50;12.00;;;;;;;;;;4919971;28;20659;-66
2023/05/16 00:08:11;;;;;;;13.48;10.48;;;;;;;;;;4919324;28;20035;-65
2023/05/16 00:10:36;;;;;;;15.95;12.23;;;;;;;;;;4928203;28;20130;-64
2023/05/16 00:13:02;;;;;;;12.85;10.93;;;;;;;;;;4913004;29;20034;-66
2023/05/16 00:15:28;;;;;;;13.13;9.75;;;;;;;;;;4930887;28;20557;-65
2023/05/16 00:17:58;;;;;;;11.93;10.38;;;;;;;;;;4910644;28;20047;-66
2023/05/16 00:20:27;;;;;;;16.02;10.07;;;;;;;;;;4926633;28;20461;-65
2023/05/16 00:22:53;;;;;;;14.32;10.73;;;;;;;;;;4918933;28;20048;-66
2023/05/16 00:25:19;;;;;;;14.98;10.45;;;;;;;;;;4924395;28;20062;-64
2023/05/16 00:27:45;;;;;;;13.77;11.02;;;;;;;;;;4931397;28;20031;-66
2023/05/16 00:30:11;;;;;;;12.80;10.52;;;;;;;;;;4929237;28;20418;-65
2023/05/16 00:32:36;;;;;;;16.98;10.68;;;;;;;;;;4922614;28;20043;-65
2023/05/16 00:35:02;;;;;;;11.75;10.40;;;;;;;;;;4918437;28;20436;-65
2023/05/16 00:37:28;;;;;;;13.57;10.35;;;;;;;;;;4929689;28;20045;-65
2023/05/16 00:39:53;;;;;;;15.13;10.73;;;;;;;;;;4930006;28;20172;-66
2023/05/16 00:42:20;;;;;;;13.20;10.18;;;;;;;;;;4930015;28;20598;-66
2023/05/16 00:44:46;;;;;;;13.13;10.10;;;;;;;;;;4930981;28;20032;-66
2023/05/16 00:47:11;;;;;;;15.20;10.27;;;;;;;;;;4914091;28;20047;-65
2023/05/16 00:49:37;;;;;;;12.38;8.60;;;;;;;;;;4918128;28;20093;-66
2023/05/16 00:52:03;;;;;;;11.27;9.10;;;;;;;;;;4929075;28;20048;-67
2023/05/16 00:54:29;;;;;;;11.23;8.73;;;;;;;;;;4928626;28;20039;-67
2023/05/16 00:56:55;;;;;;;10.55;8.80;;;;;;;;;;4928737;28;20070;-67
2023/05/16 00:59:22;;;;;;;11.38;8.95;;;;;;;;;;4928947;28;20039;-66
2023/05/16 01:01:49;;;;;;;12.70;8.52;;;;;;;;;;4886727;29;20059;-66
2023/05/16 01:04:14;;;;;;;12.65;8.85;;;;;;;;;;4909763;28;20091;-66
2023/05/16 01:06:40;;;;;;;11.23;8.82;;;;;;;;;;4930261;28;20059;-66
2023/05/16 01:09:09;;;;;;;9.43;7.68;;;;;;;;;;4921824;28;20044;-66
2023/05/16 01:11:46;;;;;;;9.15;8.10;;;;;;;;;;4921477;28;20027;-66
2023/05/16 01:14:30;;;;;;;10.43;8.00;;;;;;;;;;4916990;28;20043;-65
2023/05/16 01:17:07;;;;;;;8.95;7.57;;;;;;;;;;4902064;28;20878;-68
2023/05/16 01:19:44;;;;;;;10.48;7.90;;;;;;;;;;4924438;28;20047;-66
2023/05/16 01:22:32;;;;;;;9.25;8.25;;;;;;;;;;4925228;28;20047;-66
2023/05/16 01:25:03;;;;;;;12.27;8.07;;;;;;;;;;4908164;28;20044;-66
2023/05/16 01:27:30;;;;;;;9.82;7.47;;;;;;;;;;4928366;28;20118;-73
2023/05/16 01:29:56;;;;;;;9.25;7.30;;;;;;;;;;4912358;29;20519;-73
2023/05/16 01:32:21;;;;;;;10.25;8.48;;;;;;;;;;4920528;28;20063;-71
2023/05/16 01:34:49;;;;;;;10.25;8.27;;;;;;;;;;4915452;28;20040;-72
2023/05/16 01:37:40;;;;;;;10.45;7.80;;;;;;;;;;4898233;28;20035;-73
2023/05/16 01:40:16;;;;;;;9.75;7.70;;;;;;;;;;4894045;29;20116;-71
2023/05/16 01:42:46;;;;;;;10.60;7.65;;;;;;;;;;4900842;29;20048;-72
2023/05/16 01:45:28;;;;;;;10.10;7.85;;;;;;;;;;4920146;28;20147;-73
2023/05/16 01:48:06;;;;;;;10.90;8.02;;;;;;;;;;4901714;28;20100;-73
2023/05/16 01:50:35;;;;;;;10.00;7.63;;;;;;;;;;4892915;29;20052;-72
2023/05/16 01:53:16;;;;;;;10.82;7.38;;;;;;;;;;4905669;28;20520;-73
2023/05/16 01:55:45;;;;;;;9.85;7.55;;;;;;;;;;4925293;28;20587;-73
2023/05/16 01:58:13;;;;;;;9.95;7.43;;;;;;;;;;4902778;28;20096;-72
2023/05/16 02:00:39;;;;;;;9.15;7.57;;;;;;;;;;4909467;28;20122;-72
2023/05/16 02:03:05;;;;;;;9.38;7.15;;;;;;;;;;4927694;28;20115;-73
2023/05/16 02:05:31;;;;;;;10.52;6.72;;;;;;;;;;4926160;28;20035;-72
2023/05/16 02:07:57;;;;;;;8.00;6.10;;;;;;;;;;4914299;28;20388;-71
2023/05/16 02:10:23;;;;;;;8.32;6.20;;;;;;;;;;4915414;28;20063;-71
2023/05/16 02:12:49;;;;;;;7.70;5.45;;;;;;;;;;4926459;28;20047;-72
2023/05/16 02:15:15;;;;;;;9.48;6.00;;;;;;;;;;4917068;28;20049;-72
2023/05/16 02:17:40;;;;;;;8.90;6.80;;;;;;;;;;4920313;28;20036;-73
2023/05/16 02:20:09;;;;;;;9.77;6.18;;;;;;;;;;4920139;28;20048;-72
2023/05/16 02:22:35;;;;;;;8.32;6.32;;;;;;;;;;4927458;28;20452;-73
2023/05/16 02:25:02;;;;;;;8.35;5.80;;;;;;;;;;4921437;28;20063;-72
2023/05/16 02:27:28;;;;;;;8.35;6.25;;;;;;;;;;4923230;28;20038;-73
2023/05/16 02:29:53;;;;;;;9.18;6.18;;;;;;;;;;4928646;28;20050;-72
2023/05/16 02:32:19;;;;;;;8.18;6.57;;;;;;;;;;4928646;28;20047;-73
2023/05/16 02:34:44;;;;;;;7.72;5.70;;;;;;;;;;4923887;28;20587;-71
2023/05/16 02:37:10;;;;;;;8.20;6.32;;;;;;;;;;4929905;28;20035;-72
2023/05/16 02:39:36;;;;;;;8.27;6.22;;;;;;;;;;4921378;28;20090;-72
2023/05/16 02:42:02;;;;;;;9.23;5.93;;;;;;;;;;4909255;28;20063;-73
2023/05/16 02:44:28;;;;;;;7.63;5.63;;;;;;;;;;4930898;28;20082;-72
2023/05/16 02:46:53;;;;;;;9.57;5.90;;;;;;;;;;4934015;28;20040;-72
2023/05/16 02:49:18;;;;;;;8.55;5.28;;;;;;;;;;4926364;28;20049;-72
2023/05/16 02:51:44;;;;;;;8.38;6.03;;;;;;;;;;4929868;28;20039;-72
2023/05/16 02:54:10;;;;;;;9.00;5.93;;;;;;;;;;4912959;28;20040;-72
2023/05/16 02:56:36;;;;;;;7.82;5.38;;;;;;;;;;4920910;28;20036;-72
2023/05/16 02:59:02;;;;;;;7.80;5.80;;;;;;;;;;4932777;28;20046;-72
2023/05/16 03:01:28;;;;;;;8.57;6.05;;;;;;;;;;4933780;28;20039;-72
2023/05/16 03:03:54;;;;;;;8.20;5.78;;;;;;;;;;4931389;28;20110;-72
2023/05/16 03:06:19;;;;;;;9.82;6.28;;;;;;;;;;4922194;28;20050;-71
2023/05/16 03:08:44;;;;;;;9.02;5.93;;;;;;;;;;4932729;28;20066;-72
2023/05/16 03:11:10;;;;;;;8.32;6.07;;;;;;;;;;4903721;28;20420;-72
2023/05/16 03:13:35;;;;;;;8.95;6.20;;;;;;;;;;4930102;28;20047;-72
2023/05/16 03:16:01;;;;;;;9.98;6.28;;;;;;;;;;4902280;28;20047;-72
2023/05/16 03:18:27;;;;;;;8.75;6.13;;;;;;;;;;4922747;28;20036;-72
2023/05/16 03:20:52;;;;;;;9.52;6.35;;;;;;;;;;4912321;28;20560;-72
2023/05/16 03:23:21;;;;;;;9.32;6.80;;;;;;;;;;4918286;29;20038;-72
2023/05/16 03:25:46;;;;;;;9.20;6.22;;;;;;;;;;4920774;28;20568;-72
2023/05/16 03:28:12;;;;;;;7.68;5.35;;;;;;;;;;4914273;28;20114;-72
2023/05/16 03:30:37;;;;;;;7.43;4.72;;;;;;;;;;4933722;28;20043;-72
2023/05/16 03:33:03;;;;;;;8.57;5.22;;;;;;;;;;4915316;28;20027;-72
2023/05/16 03:35:32;;;;;;;7.38;4.72;;;;;;;;;;4919963;28;20039;-72
2023/05/16 03:37:57;;;;;;;6.88;4.30;;;;;;;;;;4920166;28;20035;-72
2023/05/16 03:40:23;;;;;;;10.88;5.20;;;;;;;;;;4926711;28;22065;-72
2023/05/16 03:42:48;;;;;;;7.05;4.82;;;;;;;;;;4926615;28;20054;-72
2023/05/16 03:45:14;;;;;;;8.55;5.45;;;;;;;;;;4925407;28;20611;-72
2023/05/16 03:47:40;;;;;;;8.55;5.15;;;;;;;;;;4916143;28;20090;-72
2023/05/16 03:50:06;;;;;;;8.10;4.90;;;;;;;;;;4909295;28;20060;-72
2023/05/16 03:52:32;;;;;;;9.07;6.07;;;;;;;;;;4906481;28;20151;-72
2023/05/16 03:54:58;;;;;;;11.93;6.15;;;;;;;;;;4928332;28;20125;-72
2023/05/16 03:57:23;;;;;;;9.63;4.85;;;;;;;;;;4931797;28;20690;-72
2023/05/16 03:59:48;;;;;;;8.15;5.68;;;;;;;;;;4927575;28;20035;-72
2023/05/16 04:02:14;;;;;;;8.88;5.25;;;;;;;;;;4923661;28;20063;-72
2023/05/16 04:04:39;;;;;;;8.85;5.07;;;;;;;;;;4930937;28;20050;-72
2023/05/16 04:07:05;;;;;;;7.88;4.60;;;;;;;;;;4902428;28;20036;-72
2023/05/16 04:09:30;;;;;;;6.45;4.07;;;;;;;;;;4924960;28;20047;-72
2023/05/16 04:11:56;;;;;;;7.13;3.80;;;;;;;;;;4928798;28;20577;-72
2023/05/16 04:14:24;;;;;;;8.15;4.72;;;;;;;;;;4912048;29;20039;-72
2023/05/16 04:16:50;;;;;;;6.85;5.20;;;;;;;;;;4914474;28;20138;-72
2023/05/16 04:19:16;;;;;;;7.15;4.47;;;;;;;;;;4927773;28;20178;-72
2023/05/16 04:21:41;;;;;;;7.55;4.30;;;;;;;;;;4902887;28;20055;-72
2023/05/16 04:24:07;;;;;;;6.75;4.07;;;;;;;;;;4928344;28;20691;-71
2023/05/16 04:26:33;;;;;;;7.88;4.55;;;;;;;;;;4927578;28;20050;-71
2023/05/16 04:28:58;;;;;;;6.57;4.38;;;;;;;;;;4927839;28;20061;-71
2023/05/16 04:31:26;;;;;;;7.10;3.78;;;;;;;;;;4911036;28;20139;-71
2023/05/16 04:33:52;;;;;;;9.88;4.38;;;;;;;;;;4907278;28;20118;-66
2023/05/16 04:36:18;;;;;;;6.57;4.60;;;;;;;;;;4922986;28;20122;-66
2023/05/16 04:38:45;;;;;;;5.95;3.78;;;;;;;;;;4923857;28;20039;-67
2023/05/16 04:41:12;;;;;;;7.38;4.40;;;;;;;;;;4910211;28;20608;-68
2023/05/16 04:43:37;;;;;;;6.72;3.78;;;;;;;;;;4925353;28;20039;-67
2023/05/16 04:46:02;;;;;;;5.50;3.50;;;;;;;;;;4928238;28;20049;-66
2023/05/16 04:48:28;;;;;;;5.85;4.05;;;;;;;;;;4917190;28;20047;-66
2023/05/16 04:50:54;;;;;;;4.85;3.45;;;;;;;;;;4928439;28;20035;-68
2023/05/16 04:53:19;;;;;;;6.35;4.00;;;;;;;;;;4928486;28;20655;-69
2023/05/16 04:55:46;;;;;;;5.93;3.97;;;;;;;;;;4928269;28;20043;-70
2023/05/16 04:58:12;;;;;;;5.88;3.58;;;;;;;;;;4917606;28;20112;-69
2023/05/16 05:00:38;;;;;;;5.85;3.90;;;;;;;;;;4930891;28;20039;-69
2023/05/16 05:03:03;;;;;;;6.85;4.28;;;;;;;;;;4907215;28;20043;-69
2023/05/16 05:05:30;;;;;;;6.55;4.35;;;;;;;;;;4927295;28;20031;-66
2023/05/16 05:07:57;;;;;;;6.03;3.83;;;;;;;;;;4925833;28;20042;-67
2023/05/16 05:10:22;;;;;;;6.82;3.97;;;;;;;;;;4925138;28;20043;-67
2023/05/16 05:12:48;;;;;;;7.63;3.67;;;;;;;;;;4912526;28;20043;-66
2023/05/16 05:15:13;;;;;;;5.50;3.70;;;;;;;;;;4917335;28;20126;-68
2023/05/16 05:17:38;;;;;;;5.72;3.70;;;;;;;;;;4918046;28;20054;-67
2023/05/16 05:20:09;;;;;;;5.57;3.55;;;;;;;;;;4925009;28;20077;-68
2023/05/16 05:22:35;;;;;;;4.93;3.28;;;;;;;;;;4923868;28;20047;-67
2023/05/16 05:25:00;;;;;;;4.70;3.45;;;;;;;;;;4925722;28;20643;-67
2023/05/16 05:27:26;;;;;;;5.50;3.70;;;;;;;;;;4913675;28;20045;-65
2023/05/16 05:29:51;;;;;;;5.60;3.70;;;;;;;;;;4903504;28;20078;-65
2023/05/16 05:32:17;;;;;;;6.18;3.70;;;;;;;;;;4927039;28;20141;-64
2023/05/16 05:34:42;;;;;;;4.72;3.35;;;;;;;;;;4923006;28;20086;-69
2023/05/16 05:37:08;;;;;;;6.82;3.58;;;;;;;;;;4923255;28;20055;-68
2023/05/16 05:39:33;;;;;;;6.60;4.30;;;;;;;;;;4916091;28;20512;-71
2023/05/16 05:41:59;;;;;;;7.10;4.20;;;;;;;;;;4894207;28;20065;-69
2023/05/16 05:44:24;;;;;;;5.55;3.63;;;;;;;;;;4880031;28;20043;-70
2023/05/16 05:46:50;;;;;;;5.95;3.72;;;;;;;;;;4903322;28;20054;-68
2023/05/16 05:49:16;;;;;;;4.00;2.65;;;;;;;;;;4927033;28;20039;-68
2023/05/16 05:51:41;;;;;;;3.38;2.42;;;;;;;;;;4926432;28;20032;-69
2023/05/16 05:54:07;;;;;;;3.35;2.55;;;;;;;;;;4916857;28;20035;-69
2023/05/16 05:56:32;;;;;;;3.85;2.78;;;;;;;;;;4928411;28;20049;-71
2023/05/16 05:58:57;;;;;;;4.90;2.40;;;;;;;;;;4897709;29;20098;-68
2023/05/16 06:01:23;;;;;;;4.68;2.22;;;;;;;;;;4909286;28;20139;-68
2023/05/16 06:03:48;;;;;;;5.70;2.53;;;;;;;;;;4927535;28;20042;-68
2023/05/16 06:06:14;;;;;;;4.60;1.92;;;;;;;;;;4927042;28;20555;-71
2023/05/16 06:08:40;;;;;;;2.72;2.17;;;;;;;;;;4916638;28;20043;-68
2023/05/16 06:11:05;;;;;;;4.55;2.20;;;;;;;;;;4919828;28;20480;-68
2023/05/16 06:13:31;;;;;;;3.33;1.80;;;;;;;;;;4923415;28;20704;-69
2023/05/16 06:15:56;;;;;;;2.95;1.48;;;;;;;;;;4930858;28;20047;-69
2023/05/16 06:18:21;;;;;;;3.45;1.88;;;;;;;;;;4929813;28;20046;-68
2023/05/16 06:20:47;;;;;;;5.60;1.60;;;;;;;;;;4933460;28;20533;-69
2023/05/16 06:23:12;;;;;;;2.42;1.70;;;;;;;;;;4904829;28;20051;-69
2023/05/16 06:25:38;;;;;;;4.75;1.45;;;;;;;;;;4931413;28;20101;-69
2023/05/16 06:28:03;;;;;;;2.03;1.25;;;;;;;;;;4930693;28;20031;-69
2023/05/16 06:30:29;;;;;;;2.35;1.40;;;;;;;;;;4921841;28;20035;-70
2023/05/16 06:32:54;;;;;;;4.03;1.60;;;;;;;;;;4917180;29;20048;-69
2023/05/16 06:35:20;;;;;;;2.45;1.10;;;;;;;;;;4927417;28;20031;-69
2023/05/16 06:37:45;;;;;;;2.45;1.13;;;;;;;;;;4941734;28;20062;-69
2023/05/16 06:40:11;;;;;;;3.58;1.35;;;;;;;;;;4923541;29;20051;-69
2023/05/16 06:42:36;;;;;;;2.20;1.40;;;;;;;;;;4917792;28;20064;-69
2023/05/16 06:45:02;;;;;;;4.72;1.00;;;;;;;;;;4926046;28;20064;-69
2023/05/16 06:47:27;;;;;;;3.10;1.30;;;;;;;;;;4933423;28;20415;-69
2023/05/16 06:49:53;;;;;;;1.70;0.93;;;;;;;;;;4929486;28;20047;-70
2023/05/16 06:52:18;;;;;;;0.98;0.88;;;;;;;;;;4906907;29;21586;-69
2023/05/16 06:54:44;;;;;;;2.25;1.10;;;;;;;;;;4899519;28;20036;-69
2023/05/16 06:57:09;;;;;;;1.33;0.93;;;;;;;;;;4920825;28;20185;-69
2023/05/16 06:59:35;;;;;;;2.95;1.20;;;;;;;;;;4921401;28;20039;-69
2023/05/16 07:02:00;;;;;;;1.10;0.90;;;;;;;;;;4916379;28;20047;-69
2023/05/16 07:04:26;;;;;;;3.65;1.00;;;;;;;;;;4913040;28;20040;-68
2023/05/16 07:06:52;;;;;;;1.80;1.17;;;;;;;;;;4888078;29;20532;-70
2023/05/16 07:09:18;;;;;;;1.33;0.90;;;;;;;;;;4921721;28;20045;-69
2023/05/16 07:11:44;;;;;;;3.25;1.20;;;;;;;;;;4938426;28;20037;-69
2023/05/16 07:14:09;;;;;;;1.98;0.90;;;;;;;;;;4932728;28;20031;-69
2023/05/16 07:16:35;;;;;;;2.13;1.20;;;;;;;;;;4911059;28;20044;-70
2023/05/16 07:19:00;;;;;;;1.50;1.00;;;;;;;;;;4923168;28;20110;-70
2023/05/16 07:21:26;;;;;;;2.08;1.30;;;;;;;;;;4922624;28;20062;-69
2023/05/16 07:23:52;;;;;;;2.53;1.25;;;;;;;;;;4901631;28;20085;-69
2023/05/16 07:26:17;;;;;;;4.35;1.88;;;;;;;;;;4937758;28;20043;-70
2023/05/16 07:28:45;;;;;;;4.05;1.70;;;;;;;;;;4938297;28;20047;-69
2023/05/16 07:31:11;;;;;;;3.30;1.42;;;;;;;;;;4931346;28;20040;-69
2023/05/16 07:33:36;;;;;;;2.08;1.33;;;;;;;;;;4914370;29;20150;-70
2023/05/16 07:36:02;;;;;;;4.80;1.63;;;;;;;;;;4933670;28;20517;-69
2023/05/16 07:38:27;;;;;;;2.28;1.50;;;;;;;;;;4926851;28;20031;-69
2023/05/16 07:40:52;;;;;;;3.75;1.80;;;;;;;;;;4921558;28;20417;-70
2023/05/16 07:43:18;;;;;;;4.50;1.88;;;;;;;;;;4927556;28;20051;-69
2023/05/16 07:45:43;;;;;;;2.97;1.60;;;;;;;;;;4929870;28;20031;-69
2023/05/16 07:48:09;;;;;;;3.65;2.00;;;;;;;;;;4932761;28;20051;-68
2023/05/16 07:50:34;;;;;;;2.50;1.50;;;;;;;;;;4923691;28;20106;-72
2023/05/16 07:53:00;;;;;;;3.83;1.52;;;;;;;;;;4908975;29;20089;-70
2023/05/16 07:55:25;;;;;;;3.03;1.20;;;;;;;;;;4918966;29;20045;-68
2023/05/16 07:57:51;;;;;;;4.60;1.60;;;;;;;;;;4918933;28;20042;-69
2023/05/16 08:00:17;;;;;;;3.65;1.50;;;;;;;;;;4911284;29;20094;-71
2023/05/16 08:02:42;;;;;;;3.75;2.00;;;;;;;;;;4921469;29;20527;-68
2023/05/16 08:05:08;;;;;;;3.35;2.15;;;;;;;;;;4916901;29;20067;-71
2023/05/16 08:07:34;;;;;;;7.65;2.45;;;;;;;;;;4908219;28;20044;-69
2023/05/16 08:09:59;;;;;;;3.80;1.65;;;;;;;;;;4915510;28;20031;-71
2023/05/16 08:12:26;;;;;;;4.00;2.05;;;;;;;;;;4929918;28;20517;-70
2023/05/16 08:14:51;;;;;;;5.38;2.33;;;;;;;;;;4922152;28;20406;-67
2023/05/16 08:17:16;;;;;;;3.58;1.80;;;;;;;;;;4920289;28;20134;-72
2023/05/16 08:19:42;;;;;;;6.30;2.00;;;;;;;;;;4916709;28;20036;-68
2023/05/16 08:22:08;;;;;;;5.60;1.98;;;;;;;;;;4918977;28;20571;-68
2023/05/16 08:24:34;;;;;;;4.22;2.05;;;;;;;;;;4915574;28;20128;-69
2023/05/16 08:27:00;;;;;;;6.65;2.58;;;;;;;;;;4922924;28;20038;-72
2023/05/16 08:29:25;;;;;;;5.90;1.90;;;;;;;;;;4917878;28;20044;-69
2023/05/16 08:31:51;;;;;;;8.35;2.75;;;;;;;;;;4916198;28;20050;-69
2023/05/16 08:34:16;;;;;;;4.82;2.30;;;;;;;;;;4926503;28;20404;-69
2023/05/16 08:36:42;;;;;;;4.13;2.05;;;;;;;;;;4937171;28;20063;-69
2023/05/16 08:39:10;;;;;;;5.38;1.88;;;;;;;;;;4933743;28;20039;-70
2023/05/16 08:41:36;;;;;;;6.32;1.98;;;;;;;;;;4923384;28;20040;-69
2023/05/16 08:44:01;;;;;;;6.70;2.13;;;;;;;;;;4922355;28;20051;-69
2023/05/16 08:46:28;;;;;;;6.38;2.28;;;;;;;;;;4921177;28;20059;-70
2023/05/16 08:48:58;;;;;;;6.10;2.33;;;;;;;;;;4922836;28;20362;-69
2023/05/16 08:51:25;;;;;;;6.10;2.55;;;;;;;;;;4917942;28;20524;-69
2023/05/16 08:54:02;;;;;;;4.22;1.70;;;;;;;;;;4931876;28;20142;-68
2023/05/16 08:56:27;;;;;;;6.78;1.67;;;;;;;;;;4921973;28;20050;-70
2023/05/16 08:58:54;;;;;;;7.90;2.10;;;;;;;;;;4914710;28;20044;-68
2023/05/16 09:01:21;;;;;;;5.10;1.80;;;;;;;;;;4924602;28;20035;-68
2023/05/16 09:03:48;;;;;;;8.75;2.25;;;;;;;;;;4917853;28;20031;-71
2023/05/16 09:06:14;;;;;;;5.40;1.90;;;;;;;;;;4922915;28;20047;-68
2023/05/16 09:08:40;;;;;;;5.00;2.03;;;;;;;;;;4933334;28;20043;-68
2023/05/16 09:11:07;;;;;;;7.38;1.85;;;;;;;;;;4926169;28;20048;-69
2023/05/16 09:13:32;;;;;;;7.60;1.88;;;;;;;;;;4907335;28;20031;-69
2023/05/16 09:16:15;;;;;;;4.80;1.83;;;;;;;;;;4909707;28;20822;-70
2023/05/16 09:18:52;;;;;;;7.07;1.80;;;;;;;;;;4919005;29;20032;-69
2023/05/16 09:21:18;;;;;;;6.65;1.77;;;;;;;;;;4915746;29;20127;-69
2023/05/16 09:23:44;;;;;;;5.05;1.48;;;;;;;;;;4915719;29;20516;-69
2023/05/16 09:26:10;;;;;;;4.50;1.40;;;;;;;;;;4923644;28;20035;-69
2023/05/16 09:28:39;;;;;;;8.95;1.98;;;;;;;;;;4925956;28;20663;-69
2023/05/16 09:31:25;;;;;;;7.22;1.33;;;;;;;;;;4927361;28;20559;-69
2023/05/16 09:33:57;;;;;;;6.18;1.58;;;;;;;;;;4927821;28;20043;-69
2023/05/16 09:36:22;;;;;;;3.92;1.20;;;;;;;;;;4928206;28;20047;-69
2023/05/16 09:38:52;;;;;;;4.10;1.10;;;;;;;;;;4933210;28;20150;-69
2023/05/16 09:41:17;;;;;;;5.00;1.33;;;;;;;;;;4917927;29;20089;-69
2023/05/16 09:43:43;;;;;;;3.33;1.10;;;;;;;;;;4922571;28;20564;-69
2023/05/16 09:46:15;;;;;;;5.40;0.77;;;;;;;;;;4917915;28;20126;-69
2023/05/16 09:48:45;;;;;;;5.93;1.40;;;;;;;;;;4918566;28;20066;-70
2023/05/16 09:51:11;;;;;;;4.05;1.17;;;;;;;;;;4898994;29;20044;-70
2023/05/16 09:53:38;;;;;;;4.70;1.10;;;;;;;;;;4918976;28;20042;-69
2023/05/16 09:56:09;;;;;;;4.05;1.50;;;;;;;;;;4917892;29;20040;-69
2023/05/16 09:58:36;;;;;;;4.65;1.73;;;;;;;;;;4914628;28;20543;-68
2023/05/16 10:01:03;;;;;;;3.15;0.95;;;;;;;;;;4915582;28;20067;-69
2023/05/16 10:03:28;;;;;;;3.03;1.00;;;;;;;;;;4912020;28;20431;-70
2023/05/16 10:05:54;;;;;;;4.07;1.23;;;;;;;;;;4920488;28;20035;-69
2023/05/16 10:08:24;;;;;;;3.38;1.10;;;;;;;;;;4925230;28;20039;-69
2023/05/16 10:10:53;;;;;;;2.15;0.73;;;;;;;;;;4935639;28;20118;-70
2023/05/16 10:13:31;;;;;;;3.08;1.00;;;;;;;;;;4924830;28;20035;-69
2023/05/16 10:15:58;;;;;;;5.75;1.23;;;;;;;;;;4916199;29;20047;-70
2023/05/16 10:18:31;;;;;;;2.65;1.15;;;;;;;;;;4913200;29;20540;-70
2023/05/16 10:21:03;;;;;;;4.03;1.10;;;;;;;;;;4916125;28;20046;-70
2023/05/16 10:23:30;;;;;;;3.22;0.95;;;;;;;;;;4930533;28;20046;-69
2023/05/16 10:25:56;;;;;;;3.17;0.90;;;;;;;;;;4935638;28;20047;-69
2023/05/16 10:28:23;;;;;;;3.53;1.17;;;;;;;;;;4903991;28;20035;-70
2023/05/16 10:30:50;;;;;;;3.92;1.05;;;;;;;;;;4934751;28;20082;-70
2023/05/16 10:33:17;;;;;;;2.28;0.80;;;;;;;;;;4933542;28;20035;-70
2023/05/16 10:35:44;;;;;;;3.88;1.17;;;;;;;;;;4933234;28;20114;-70
2023/05/16 10:38:11;;;;;;;5.55;0.95;;;;;;;;;;4928281;28;20035;-70
2023/05/16 10:40:38;;;;;;;5.25;1.10;;;;;;;;;;4912749;28;20042;-70
2023/05/16 10:43:07;;;;;;;6.15;1.25;;;;;;;;;;4933873;28;20703;-70
2023/05/16 10:45:32;;;;;;;2.25;0.95;;;;;;;;;;4915462;29;20051;-70
2023/05/16 10:47:59;;;;;;;4.88;1.00;;;;;;;;;;4916091;28;20055;-69
2023/05/16 10:50:33;;;;;;;5.57;0.80;;;;;;;;;;4919246;28;20043;-69
2023/05/16 10:53:34;;;;;;;3.72;1.17;;;;;;;;;;4926877;28;20538;-70
2023/05/16 10:56:00;;;;;;;;;;;;;;;;;;4888925;29;20144;-70
2023/05/16 10:58:37;;;;;;;1.42;0.80;;;;;;;;;;4930278;28;20628;-70
2023/05/16 11:01:23;;;;;;;2.92;1.00;;;;;;;;;;4937276;28;20559;-69
2023/05/16 11:06:48;;;;;;;4.88;0.90;;;;;;;;;;4906523;28;20790;-70
2023/05/16 11:09:21;;;;;;;;;;;;;;;;;;4925946;28;20044;-69
2023/05/16 11:11:55;;;;;;;2.92;0.90;;;;;;;;;;4930011;28;19925;-69
2023/05/16 11:14:23;;;;;;;2.65;1.00;;;;;;;;;;4928994;28;20040;-70
2023/05/16 11:16:59;;;;;;;4.68;0.90;;;;;;;;;;4923189;28;20097;-69
2023/05/16 11:19:46;;;;;;;4.03;0.95;;;;;;;;;;4937107;28;20543;-70
2023/05/16 11:22:31;;;;;;;3.15;1.08;;;;;;;;;;4906836;29;20535;-69
2023/05/16 11:25:08;;;;;;;4.10;0.80;;;;;;;;;;4901571;28;20106;-71
2023/05/16 11:27:35;;;;;;;4.47;0.98;;;;;;;;;;4920929;28;20595;-69
2023/05/16 11:30:00;;;;;;;2.63;0.70;;;;;;;;;;4928579;28;20629;-70
2023/05/16 11:32:26;;;;;;;1.90;1.02;;;;;;;;;;4921645;28;20043;-70
2023/05/16 11:34:52;;;;;;;4.68;1.20;;;;;;;;;;4924872;29;20035;-69
2023/05/16 11:37:19;;;;;;;3.85;0.80;;;;;;;;;;4924933;28;20918;-69
2023/05/16 11:39:45;;;;;;;4.22;0.98;;;;;;;;;;4924318;29;20059;-70
2023/05/16 11:42:12;;;;;;;3.17;1.05;;;;;;;;;;4919653;28;20059;-69
2023/05/16 11:44:39;;;;;;;3.45;0.75;;;;;;;;;;4921676;28;20045;-69
2023/05/16 11:47:05;;;;;;;3.83;0.90;;;;;;;;;;4921157;28;20582;-70
2023/05/16 11:49:30;;;;;;;1.98;0.88;;;;;;;;;;4911126;28;20044;-70
2023/05/16 11:51:59;;;;;;;2.00;0.70;;;;;;;;;;4922450;28;20031;-69
2023/05/16 11:54:25;;;;;;;2.53;0.70;;;;;;;;;;4898756;29;20039;-69
2023/05/16 11:56:51;;;;;;;2.72;0.80;;;;;;;;;;4910370;29;20102;-69
2023/05/16 11:59:17;;;;;;;3.05;0.75;;;;;;;;;;4912995;28;20035;-69
2023/05/16 12:01:42;;;;;;;3.95;0.82;;;;;;;;;;4916314;28;20051;-70
2023/05/16 12:04:12;;;;;;;2.92;0.60;;;;;;;;;;4924786;28;20055;-71
2023/05/16 12:06:38;;;;;;;1.70;0.77;;;;;;;;;;4904122;28;20052;-71
2023/05/16 12:09:11;;;;;;;1.52;0.70;;;;;;;;;;4921118;29;20039;-70
2023/05/16 12:11:41;;;;;;;5.80;0.80;;;;;;;;;;4935533;28;20093;-71
2023/05/16 12:14:09;;;;;;;6.53;0.93;;;;;;;;;;4935300;28;20387;-71
2023/05/16 12:16:37;;;;;;;3.72;0.98;;;;;;;;;;4927684;28;20039;-71
2023/05/16 12:19:04;;;;;;;7.00;1.10;;;;;;;;;;4908909;29;20041;-71
2023/05/16 12:21:31;;;;;;;2.42;0.77;;;;;;;;;;4931235;28;20051;-70
2023/05/16 12:23:58;;;;;;;2.15;0.55;;;;;;;;;;4915477;29;20860;-71
2023/05/16 12:26:29;;;;;;;3.20;1.48;;;;;;;;;;4921320;28;20079;-71
2023/05/16 12:28:59;;;;;;;;;;;;;;;;;;4915585;29;20048;-70
2023/05/16 12:31:24;;;;;;;4.15;0.82;;;;;;;;;;4906519;28;20614;-70
2023/05/16 12:33:53;;;;;;;4.38;1.02;;;;;;;;;;4938815;28;20035;-71
2023/05/16 12:36:18;;;;;;;4.38;0.80;;;;;;;;;;4934150;28;20142;-70
2023/05/16 12:38:46;;;;;;;1.75;0.75;;;;;;;;;;4935675;28;20803;-71
2023/05/16 12:41:16;;;;;;;3.60;1.02;;;;;;;;;;4935238;28;20043;-71
2023/05/16 12:43:42;;;;;;;1.38;0.70;;;;;;;;;;4914326;28;20682;-71
2023/05/16 12:46:10;;;;;;;5.30;0.98;;;;;;;;;;4933529;28;20148;-71
2023/05/16 12:48:38;;;;;;;2.15;0.98;;;;;;;;;;4910613;29;20404;-71
2023/05/16 12:51:14;;;;;;;2.45;0.82;;;;;;;;;;4901076;29;20055;-73
2023/05/16 12:53:46;;;;;;;4.00;0.90;;;;;;;;;;4929973;28;20110;-71
2023/05/16 12:56:12;;;;;;;2.08;0.80;;;;;;;;;;4909345;28;20059;-70
2023/05/16 12:58:38;;;;;;;2.33;0.47;;;;;;;;;;4905577;28;20423;-71
2023/05/16 13:01:06;;;;;;;1.35;0.40;;;;;;;;;;4930542;28;20050;-70
2023/05/16 13:03:33;;;;;;;3.00;0.68;;;;;;;;;;4926881;28;20047;-70
2023/05/16 13:05:58;;;;;;;2.60;0.85;;;;;;;;;;4935101;28;20085;-71
2023/05/16 13:08:25;;;;;;;2.72;0.52;;;;;;;;;;4923895;28;20518;-71
2023/05/16 13:10:52;;;;;;;2.33;0.57;;;;;;;;;;4911370;28;20036;-70
2023/05/16 13:13:20;;;;;;;3.45;0.60;;;;;;;;;;4919207;29;20044;-71
2023/05/16 13:15:46;;;;;;;4.53;0.55;;;;;;;;;;4913962;28;20044;-71
2023/05/16 13:18:13;;;;;;;4.40;0.90;;;;;;;;;;4897223;29;20780;-71
2023/05/16 13:20:38;;;;;;;2.72;0.50;;;;;;;;;;4928622;28;20098;-71
2023/05/16 13:23:04;;;;;;;2.33;0.50;;;;;;;;;;4914926;28;20128;-71
2023/05/16 13:25:32;;;;;;;3.35;1.00;;;;;;;;;;4915028;28;20653;-71
2023/05/16 13:27:57;;;;;;;3.17;1.00;;;;;;;;;;4936081;28;20043;-73
2023/05/16 13:30:23;;;;;;;4.90;0.50;;;;;;;;;;4929394;28;20047;-71
2023/05/16 13:32:49;;;;;;;2.55;0.60;;;;;;;;;;4918556;28;20416;-70
2023/05/16 13:35:14;;;;;;;2.05;0.50;;;;;;;;;;4913355;28;20043;-71
2023/05/16 13:37:40;;;;;;;2.70;0.80;;;;;;;;;;4910029;28;20043;-71
2023/05/16 13:40:09;;;;;;;3.17;1.45;;;;;;;;;;4917526;29;20044;-72
2023/05/16 13:42:35;;;;;;;1.67;0.70;;;;;;;;;;4921464;28;20047;-71
2023/05/16 13:45:01;;;;;;;2.97;0.70;;;;;;;;;;4902718;29;20529;-72
2023/05/16 13:47:27;;;;;;;3.13;0.60;;;;;;;;;;4917297;28;20091;-72
2023/05/16 13:49:52;;;;;;;2.95;0.60;;;;;;;;;;4916157;28;20052;-70
2023/05/16 13:52:18;;;;;;;2.03;0.60;;;;;;;;;;4911165;28;20039;-71
2023/05/16 13:54:43;;;;;;;3.17;0.80;;;;;;;;;;4935597;28;20035;-71
2023/05/16 13:57:08;;;;;;;2.42;0.80;;;;;;;;;;4914424;29;20035;-71
2023/05/16 13:59:34;;;;;;;2.53;0.60;;;;;;;;;;4923930;28;20051;-71
2023/05/16 14:02:00;;;;;;;1.35;0.50;;;;;;;;;;4930894;28;20130;-71
2023/05/16 14:04:25;;;;;;;6.00;1.10;;;;;;;;;;4935620;28;20043;-71
2023/05/16 14:06:51;;;;;;;2.50;0.57;;;;;;;;;;4914676;28;20040;-71
2023/05/16 14:09:16;;;;;;;2.67;0.55;;;;;;;;;;4908899;28;20043;-72
2023/05/16 14:11:41;;;;;;;1.92;0.70;;;;;;;;;;4934639;28;20035;-71
2023/05/16 14:14:07;;;;;;;4.35;0.75;;;;;;;;;;4920276;28;20077;-71
2023/05/16 14:16:32;;;;;;;3.22;0.88;;;;;;;;;;4936498;28;20039;-71
2023/05/16 14:18:58;;;;;;;3.25;1.05;;;;;;;;;;4920559;28;20054;-71
2023/05/16 14:21:23;;;;;;;4.28;0.80;;;;;;;;;;4900148;29;20062;-71
2023/05/16 14:23:48;;;;;;;2.63;0.77;;;;;;;;;;4919544;28;20047;-70
2023/05/16 14:26:15;;;;;;;1.13;0.60;;;;;;;;;;4917587;28;20042;-71
2023/05/16 14:28:40;;;;;;;2.30;0.85;;;;;;;;;;4918695;28;20079;-71
2023/05/16 14:31:05;;;;;;;2.70;0.60;;;;;;;;;;4923024;28;20044;-72
2023/05/16 14:33:32;;;;;;;0.95;0.70;;;;;;;;;;4918587;28;20067;-70
2023/05/16 14:35:57;;;;;;;4.55;0.75;;;;;;;;;;4908758;28;20420;-70
2023/05/16 14:38:23;;;;;;;1.85;0.55;;;;;;;;;;4931381;28;20047;-71
2023/05/16 14:40:48;;;;;;;3.13;0.70;;;;;;;;;;4912605;29;20312;-71
2023/05/16 14:43:15;;;;;;;3.40;0.85;;;;;;;;;;4910683;29;20381;-71